Terminal Aerodrome Forecast
Issued by NWS

Home | Current Version | Previous Version | Text Only | Print | Product List | Glossary On
Versions: 1 2 3 4 5 6 7 8 9 10 11 12 13 14 15 16 17 18
000
FTUS45 KFGZ 311729
TAFSEZ
TAF
KSEZ 311729Z 3118/0118 24006KT P6SM SCT080 SCT150
      TEMPO 3120/3124 VRB20G30KT 4SM TSRA BKN050CB OVC090
     FM010300 VRB05KT P6SM BKN060 OVC090
      AMD NOT SKED=

USA.gov is the U.S. government's official web portal to all federal, state and local government web resources and services.